sensor_id;sensor_type;location;lat;lon;timestamp;P1;durP1;ratioP1;P2;durP2;ratioP2
42742;SDS011;28397;44.552;-0.848;2022-11-13T00:03:40;19.90;;;17.90;;
42742;SDS011;28397;44.552;-0.848;2022-11-13T00:06:06;21.05;;;17.35;;
42742;SDS011;28397;44.552;-0.848;2022-11-13T00:08:32;19.77;;;16.98;;
42742;SDS011;28397;44.552;-0.848;2022-11-13T00:11:05;19.67;;;16.45;;
42742;SDS011;28397;44.552;-0.848;2022-11-13T00:13:33;22.33;;;16.88;;
42742;SDS011;28397;44.552;-0.848;2022-11-13T00:16:00;19.25;;;16.95;;
42742;SDS011;28397;44.552;-0.848;2022-11-13T00:18:28;21.02;;;18.80;;
42742;SDS011;28397;44.552;-0.848;2022-11-13T00:20:55;21.27;;;18.98;;
42742;SDS011;28397;44.552;-0.848;2022-11-13T00:23:22;20.83;;;18.65;;
42742;SDS011;28397;44.552;-0.848;2022-11-13T00:25:48;20.83;;;17.73;;
42742;SDS011;28397;44.552;-0.848;2022-11-13T00:28:13;20.05;;;16.83;;
42742;SDS011;28397;44.552;-0.848;2022-11-13T00:30:39;17.60;;;15.45;;
42742;SDS011;28397;44.552;-0.848;2022-11-13T00:33:05;14.73;;;13.23;;
42742;SDS011;28397;44.552;-0.848;2022-11-13T00:35:32;19.02;;;14.27;;
42742;SDS011;28397;44.552;-0.848;2022-11-13T00:37:57;20.38;;;16.85;;
42742;SDS011;28397;44.552;-0.848;2022-11-13T00:40:23;16.77;;;15.05;;
42742;SDS011;28397;44.552;-0.848;2022-11-13T00:42:49;17.77;;;14.93;;
42742;SDS011;28397;44.552;-0.848;2022-11-13T00:45:15;21.73;;;14.65;;
42742;SDS011;28397;44.552;-0.848;2022-11-13T00:47:40;19.60;;;14.48;;
42742;SDS011;28397;44.552;-0.848;2022-11-13T00:50:06;15.23;;;13.18;;
42742;SDS011;28397;44.552;-0.848;2022-11-13T00:52:32;19.25;;;15.27;;
42742;SDS011;28397;44.552;-0.848;2022-11-13T00:54:57;18.15;;;15.07;;
42742;SDS011;28397;44.552;-0.848;2022-11-13T00:57:23;17.70;;;15.07;;
42742;SDS011;28397;44.552;-0.848;2022-11-13T00:59:49;15.95;;;13.65;;
42742;SDS011;28397;44.552;-0.848;2022-11-13T01:02:15;16.20;;;11.80;;
42742;SDS011;28397;44.552;-0.848;2022-11-13T01:04:41;14.45;;;11.60;;
42742;SDS011;28397;44.552;-0.848;2022-11-13T01:07:06;20.33;;;12.27;;
42742;SDS011;28397;44.552;-0.848;2022-11-13T01:09:32;15.73;;;11.98;;
42742;SDS011;28397;44.552;-0.848;2022-11-13T01:11:58;19.08;;;16.38;;
42742;SDS011;28397;44.552;-0.848;2022-11-13T01:14:24;20.38;;;15.70;;
42742;SDS011;28397;44.552;-0.848;2022-11-13T01:16:50;17.00;;;15.30;;
42742;SDS011;28397;44.552;-0.848;2022-11-13T01:19:15;15.85;;;14.15;;
42742;SDS011;28397;44.552;-0.848;2022-11-13T01:21:41;16.73;;;14.30;;
42742;SDS011;28397;44.552;-0.848;2022-11-13T01:24:07;17.65;;;12.85;;
42742;SDS011;28397;44.552;-0.848;2022-11-13T01:26:32;16.55;;;14.68;;
42742;SDS011;28397;44.552;-0.848;2022-11-13T01:28:58;15.27;;;13.65;;
42742;SDS011;28397;44.552;-0.848;2022-11-13T01:31:26;17.33;;;15.48;;
42742;SDS011;28397;44.552;-0.848;2022-11-13T01:33:54;18.65;;;16.17;;
42742;SDS011;28397;44.552;-0.848;2022-11-13T01:36:21;16.30;;;14.57;;
42742;SDS011;28397;44.552;-0.848;2022-11-13T01:38:51;17.73;;;12.48;;
42742;SDS011;28397;44.552;-0.848;2022-11-13T01:41:22;16.88;;;13.98;;
42742;SDS011;28397;44.552;-0.848;2022-11-13T01:43:51;21.75;;;19.27;;
42742;SDS011;28397;44.552;-0.848;2022-11-13T01:51:37;23.50;;;17.02;;
42742;SDS011;28397;44.552;-0.848;2022-11-13T01:54:04;17.25;;;15.57;;
42742;SDS011;28397;44.552;-0.848;2022-11-13T01:56:35;17.58;;;15.70;;
42742;SDS011;28397;44.552;-0.848;2022-11-13T01:59:06;15.05;;;13.20;;
42742;SDS011;28397;44.552;-0.848;2022-11-13T02:01:35;16.20;;;14.50;;
42742;SDS011;28397;44.552;-0.848;2022-11-13T02:04:01;16.50;;;14.85;;
42742;SDS011;28397;44.552;-0.848;2022-11-13T02:06:32;16.10;;;14.30;;
42742;SDS011;28397;44.552;-0.848;2022-11-13T02:09:09;16.17;;;13.60;;
42742;SDS011;28397;44.552;-0.848;2022-11-13T02:11:36;19.02;;;13.85;;
42742;SDS011;28397;44.552;-0.848;2022-11-13T02:14:02;17.63;;;14.85;;
42742;SDS011;28397;44.552;-0.848;2022-11-13T02:16:29;16.10;;;14.40;;
42742;SDS011;28397;44.552;-0.848;2022-11-13T02:18:57;20.73;;;16.58;;
42742;SDS011;28397;44.552;-0.848;2022-11-13T02:23:54;17.60;;;15.30;;
42742;SDS011;28397;44.552;-0.848;2022-11-13T02:26:24;17.05;;;14.20;;
42742;SDS011;28397;44.552;-0.848;2022-11-13T02:28:51;16.80;;;14.35;;
42742;SDS011;28397;44.552;-0.848;2022-11-13T02:31:17;19.95;;;17.85;;
42742;SDS011;28397;44.552;-0.848;2022-11-13T02:33:43;19.45;;;17.42;;
42742;SDS011;28397;44.552;-0.848;2022-11-13T02:36:09;18.33;;;16.15;;
42742;SDS011;28397;44.552;-0.848;2022-11-13T02:38:36;16.58;;;14.38;;
42742;SDS011;28397;44.552;-0.848;2022-11-13T02:41:04;14.98;;;13.02;;
42742;SDS011;28397;44.552;-0.848;2022-11-13T02:43:30;17.92;;;16.20;;
42742;SDS011;28397;44.552;-0.848;2022-11-13T02:45:55;18.67;;;15.77;;
42742;SDS011;28397;44.552;-0.848;2022-11-13T02:48:21;20.17;;;15.75;;
42742;SDS011;28397;44.552;-0.848;2022-11-13T02:50:47;18.85;;;14.73;;
42742;SDS011;28397;44.552;-0.848;2022-11-13T02:53:13;16.77;;;15.07;;
42742;SDS011;28397;44.552;-0.848;2022-11-13T02:55:38;17.10;;;14.93;;
42742;SDS011;28397;44.552;-0.848;2022-11-13T02:58:04;16.55;;;14.70;;
42742;SDS011;28397;44.552;-0.848;2022-11-13T03:00:30;16.83;;;15.02;;
42742;SDS011;28397;44.552;-0.848;2022-11-13T03:02:55;17.50;;;14.05;;
42742;SDS011;28397;44.552;-0.848;2022-11-13T03:05:21;15.65;;;14.07;;
42742;SDS011;28397;44.552;-0.848;2022-11-13T03:07:47;15.95;;;13.95;;
42742;SDS011;28397;44.552;-0.848;2022-11-13T03:10:13;18.08;;;14.52;;
42742;SDS011;28397;44.552;-0.848;2022-11-13T03:12:39;16.45;;;13.25;;
42742;SDS011;28397;44.552;-0.848;2022-11-13T03:15:05;15.65;;;14.05;;
42742;SDS011;28397;44.552;-0.848;2022-11-13T03:17:32;16.33;;;14.63;;
42742;SDS011;28397;44.552;-0.848;2022-11-13T03:19:58;15.88;;;13.65;;
42742;SDS011;28397;44.552;-0.848;2022-11-13T03:22:24;16.52;;;14.07;;
42742;SDS011;28397;44.552;-0.848;2022-11-13T03:24:50;18.60;;;14.10;;
42742;SDS011;28397;44.552;-0.848;2022-11-13T03:27:16;15.30;;;13.70;;
42742;SDS011;28397;44.552;-0.848;2022-11-13T03:29:41;15.68;;;14.00;;
42742;SDS011;28397;44.552;-0.848;2022-11-13T03:32:07;14.43;;;12.93;;
42742;SDS011;28397;44.552;-0.848;2022-11-13T03:34:33;21.33;;;14.15;;
42742;SDS011;28397;44.552;-0.848;2022-11-13T03:36:59;15.45;;;13.35;;
42742;SDS011;28397;44.552;-0.848;2022-11-13T03:39:24;18.90;;;15.35;;
42742;SDS011;28397;44.552;-0.848;2022-11-13T03:41:50;16.23;;;14.05;;
42742;SDS011;28397;44.552;-0.848;2022-11-13T03:44:16;15.05;;;12.40;;
42742;SDS011;28397;44.552;-0.848;2022-11-13T03:46:41;13.18;;;11.77;;
42742;SDS011;28397;44.552;-0.848;2022-11-13T03:49:07;14.88;;;13.38;;
42742;SDS011;28397;44.552;-0.848;2022-11-13T03:51:33;16.15;;;13.90;;
42742;SDS011;28397;44.552;-0.848;2022-11-13T03:53:58;16.25;;;14.50;;
42742;SDS011;28397;44.552;-0.848;2022-11-13T03:56:24;15.35;;;12.23;;
42742;SDS011;28397;44.552;-0.848;2022-11-13T03:58:50;15.23;;;13.07;;
42742;SDS011;28397;44.552;-0.848;2022-11-13T04:01:15;15.50;;;13.98;;
42742;SDS011;28397;44.552;-0.848;2022-11-13T04:03:41;13.10;;;11.70;;
42742;SDS011;28397;44.552;-0.848;2022-11-13T04:06:07;13.73;;;12.30;;
42742;SDS011;28397;44.552;-0.848;2022-11-13T04:08:33;15.98;;;14.30;;
42742;SDS011;28397;44.552;-0.848;2022-11-13T04:11:09;13.63;;;12.30;;
42742;SDS011;28397;44.552;-0.848;2022-11-13T04:13:36;20.15;;;14.57;;
42742;SDS011;28397;44.552;-0.848;2022-11-13T04:16:03;17.05;;;15.25;;
42742;SDS011;28397;44.552;-0.848;2022-11-13T04:18:29;16.27;;;13.25;;
42742;SDS011;28397;44.552;-0.848;2022-11-13T04:20:57;18.60;;;14.60;;
42742;SDS011;28397;44.552;-0.848;2022-11-13T04:23:27;17.33;;;13.23;;
42742;SDS011;28397;44.552;-0.848;2022-11-13T04:25:53;14.95;;;13.30;;
42742;SDS011;28397;44.552;-0.848;2022-11-13T04:28:18;16.77;;;14.65;;
42742;SDS011;28397;44.552;-0.848;2022-11-13T04:30:44;17.15;;;15.27;;
42742;SDS011;28397;44.552;-0.848;2022-11-13T04:33:10;22.80;;;18.88;;
42742;SDS011;28397;44.552;-0.848;2022-11-13T04:35:36;20.95;;;17.40;;
42742;SDS011;28397;44.552;-0.848;2022-11-13T04:38:01;20.20;;;17.23;;
42742;SDS011;28397;44.552;-0.848;2022-11-13T04:40:27;16.40;;;14.15;;
42742;SDS011;28397;44.552;-0.848;2022-11-13T04:42:53;16.35;;;14.73;;
42742;SDS011;28397;44.552;-0.848;2022-11-13T04:45:20;14.15;;;12.75;;
42742;SDS011;28397;44.552;-0.848;2022-11-13T04:47:47;15.25;;;13.75;;
42742;SDS011;28397;44.552;-0.848;2022-11-13T04:50:14;19.38;;;15.73;;
42742;SDS011;28397;44.552;-0.848;2022-11-13T04:52:41;16.92;;;15.18;;
42742;SDS011;28397;44.552;-0.848;2022-11-13T04:55:07;19.42;;;17.40;;
42742;SDS011;28397;44.552;-0.848;2022-11-13T04:57:34;13.73;;;12.43;;
42742;SDS011;28397;44.552;-0.848;2022-11-13T05:00:00;15.85;;;14.18;;
42742;SDS011;28397;44.552;-0.848;2022-11-13T05:02:27;17.77;;;15.98;;
42742;SDS011;28397;44.552;-0.848;2022-11-13T05:04:52;18.33;;;15.55;;
42742;SDS011;28397;44.552;-0.848;2022-11-13T05:07:18;14.75;;;13.35;;
42742;SDS011;28397;44.552;-0.848;2022-11-13T05:09:44;32.75;;;24.25;;
42742;SDS011;28397;44.552;-0.848;2022-11-13T05:12:10;73.65;;;45.45;;
42742;SDS011;28397;44.552;-0.848;2022-11-13T05:14:36;79.78;;;54.60;;
42742;SDS011;28397;44.552;-0.848;2022-11-13T05:17:03;44.85;;;33.58;;
42742;SDS011;28397;44.552;-0.848;2022-11-13T05:19:30;63.60;;;44.45;;
42742;SDS011;28397;44.552;-0.848;2022-11-13T05:21:57;53.85;;;41.05;;
42742;SDS011;28397;44.552;-0.848;2022-11-13T05:24:23;62.15;;;46.65;;
42742;SDS011;28397;44.552;-0.848;2022-11-13T05:26:49;72.63;;;54.08;;
42742;SDS011;28397;44.552;-0.848;2022-11-13T05:29:22;83.07;;;58.63;;
42742;SDS011;28397;44.552;-0.848;2022-11-13T05:31:48;69.72;;;50.97;;
42742;SDS011;28397;44.552;-0.848;2022-11-13T05:34:13;72.50;;;50.08;;
42742;SDS011;28397;44.552;-0.848;2022-11-13T05:36:39;70.15;;;51.45;;
42742;SDS011;28397;44.552;-0.848;2022-11-13T05:39:05;62.10;;;44.15;;
42742;SDS011;28397;44.552;-0.848;2022-11-13T05:41:31;39.25;;;29.83;;
42742;SDS011;28397;44.552;-0.848;2022-11-13T05:43:57;29.90;;;23.58;;
42742;SDS011;28397;44.552;-0.848;2022-11-13T05:46:24;21.58;;;18.73;;
42742;SDS011;28397;44.552;-0.848;2022-11-13T05:48:52;23.27;;;20.67;;
42742;SDS011;28397;44.552;-0.848;2022-11-13T05:51:20;20.83;;;17.58;;
42742;SDS011;28397;44.552;-0.848;2022-11-13T05:53:48;20.77;;;18.60;;
42742;SDS011;28397;44.552;-0.848;2022-11-13T05:56:16;20.00;;;17.90;;
42742;SDS011;28397;44.552;-0.848;2022-11-13T06:01:22;20.17;;;18.15;;
42742;SDS011;28397;44.552;-0.848;2022-11-13T06:03:49;18.20;;;16.25;;
42742;SDS011;28397;44.552;-0.848;2022-11-13T06:06:17;16.92;;;15.25;;
42742;SDS011;28397;44.552;-0.848;2022-11-13T06:08:44;17.63;;;15.95;;
42742;SDS011;28397;44.552;-0.848;2022-11-13T06:11:12;18.13;;;16.30;;
42742;SDS011;28397;44.552;-0.848;2022-11-13T06:13:41;16.80;;;15.10;;
42742;SDS011;28397;44.552;-0.848;2022-11-13T06:16:09;17.15;;;15.40;;
42742;SDS011;28397;44.552;-0.848;2022-11-13T06:18:37;17.83;;;16.02;;
42742;SDS011;28397;44.552;-0.848;2022-11-13T06:21:04;18.58;;;16.35;;
42742;SDS011;28397;44.552;-0.848;2022-11-13T06:23:35;16.75;;;15.05;;
42742;SDS011;28397;44.552;-0.848;2022-11-13T06:26:03;18.85;;;16.42;;
42742;SDS011;28397;44.552;-0.848;2022-11-13T06:28:35;20.30;;;15.95;;
42742;SDS011;28397;44.552;-0.848;2022-11-13T06:31:08;18.75;;;15.88;;
42742;SDS011;28397;44.552;-0.848;2022-11-13T06:33:36;19.85;;;16.38;;
42742;SDS011;28397;44.552;-0.848;2022-11-13T06:36:03;20.08;;;17.25;;
42742;SDS011;28397;44.552;-0.848;2022-11-13T06:38:31;16.80;;;15.10;;
42742;SDS011;28397;44.552;-0.848;2022-11-13T06:40:58;19.08;;;17.08;;
42742;SDS011;28397;44.552;-0.848;2022-11-13T06:43:25;16.73;;;15.02;;
42742;SDS011;28397;44.552;-0.848;2022-11-13T06:45:51;19.48;;;16.67;;
42742;SDS011;28397;44.552;-0.848;2022-11-13T06:48:17;15.93;;;14.23;;
42742;SDS011;28397;44.552;-0.848;2022-11-13T06:50:43;17.48;;;15.40;;
42742;SDS011;28397;44.552;-0.848;2022-11-13T06:53:09;17.75;;;16.02;;
42742;SDS011;28397;44.552;-0.848;2022-11-13T06:55:34;22.42;;;16.85;;
42742;SDS011;28397;44.552;-0.848;2022-11-13T06:58:00;16.67;;;15.02;;
42742;SDS011;28397;44.552;-0.848;2022-11-13T07:00:26;19.38;;;17.38;;
42742;SDS011;28397;44.552;-0.848;2022-11-13T07:02:51;18.80;;;16.75;;
42742;SDS011;28397;44.552;-0.848;2022-11-13T07:05:17;16.55;;;14.82;;
42742;SDS011;28397;44.552;-0.848;2022-11-13T07:07:43;19.35;;;16.45;;
42742;SDS011;28397;44.552;-0.848;2022-11-13T07:10:08;15.65;;;14.13;;
42742;SDS011;28397;44.552;-0.848;2022-11-13T07:12:34;17.05;;;15.07;;
42742;SDS011;28397;44.552;-0.848;2022-11-13T07:15:00;18.27;;;16.10;;
42742;SDS011;28397;44.552;-0.848;2022-11-13T07:17:27;17.60;;;15.80;;
42742;SDS011;28397;44.552;-0.848;2022-11-13T07:19:53;16.52;;;14.38;;
42742;SDS011;28397;44.552;-0.848;2022-11-13T07:22:18;19.90;;;16.85;;
42742;SDS011;28397;44.552;-0.848;2022-11-13T07:24:44;18.63;;;16.27;;
42742;SDS011;28397;44.552;-0.848;2022-11-13T07:27:10;18.48;;;16.40;;
42742;SDS011;28397;44.552;-0.848;2022-11-13T07:29:35;16.35;;;14.80;;
42742;SDS011;28397;44.552;-0.848;2022-11-13T07:32:03;18.00;;;15.27;;
42742;SDS011;28397;44.552;-0.848;2022-11-13T07:34:29;14.25;;;12.85;;
42742;SDS011;28397;44.552;-0.848;2022-11-13T07:36:55;14.55;;;11.93;;
42742;SDS011;28397;44.552;-0.848;2022-11-13T07:39:20;10.93;;;9.80;;
42742;SDS011;28397;44.552;-0.848;2022-11-13T07:41:46;9.45;;;8.50;;
42742;SDS011;28397;44.552;-0.848;2022-11-13T07:44:12;9.65;;;7.90;;
42742;SDS011;28397;44.552;-0.848;2022-11-13T07:46:38;8.32;;;6.78;;
42742;SDS011;28397;44.552;-0.848;2022-11-13T07:49:03;7.40;;;6.63;;
42742;SDS011;28397;44.552;-0.848;2022-11-13T07:51:29;7.65;;;5.93;;
42742;SDS011;28397;44.552;-0.848;2022-11-13T07:53:55;9.15;;;5.63;;
42742;SDS011;28397;44.552;-0.848;2022-11-13T07:56:21;6.68;;;5.97;;
42742;SDS011;28397;44.552;-0.848;2022-11-13T07:58:49;7.05;;;5.97;;
42742;SDS011;28397;44.552;-0.848;2022-11-13T08:01:15;7.35;;;6.03;;
42742;SDS011;28397;44.552;-0.848;2022-11-13T08:03:40;6.75;;;5.38;;
42742;SDS011;28397;44.552;-0.848;2022-11-13T08:06:06;5.30;;;4.80;;
42742;SDS011;28397;44.552;-0.848;2022-11-13T08:08:32;7.30;;;5.72;;
42742;SDS011;28397;44.552;-0.848;2022-11-13T08:11:03;6.22;;;5.57;;
42742;SDS011;28397;44.552;-0.848;2022-11-13T08:13:30;6.95;;;5.15;;
42742;SDS011;28397;44.552;-0.848;2022-11-13T08:15:58;7.18;;;4.97;;
42742;SDS011;28397;44.552;-0.848;2022-11-13T08:18:26;5.55;;;5.03;;
42742;SDS011;28397;44.552;-0.848;2022-11-13T08:20:52;6.20;;;5.32;;
42742;SDS011;28397;44.552;-0.848;2022-11-13T08:23:18;5.85;;;4.93;;
42742;SDS011;28397;44.552;-0.848;2022-11-13T08:25:44;6.78;;;4.82;;
42742;SDS011;28397;44.552;-0.848;2022-11-13T08:28:10;6.57;;;4.72;;
42742;SDS011;28397;44.552;-0.848;2022-11-13T08:30:36;4.70;;;4.13;;
42742;SDS011;28397;44.552;-0.848;2022-11-13T08:33:02;5.00;;;4.50;;
42742;SDS011;28397;44.552;-0.848;2022-11-13T08:35:28;6.45;;;4.40;;
42742;SDS011;28397;44.552;-0.848;2022-11-13T08:37:59;5.70;;;3.97;;
42742;SDS011;28397;44.552;-0.848;2022-11-13T08:40:26;6.80;;;4.80;;
42742;SDS011;28397;44.552;-0.848;2022-11-13T08:42:56;5.30;;;4.50;;
42742;SDS011;28397;44.552;-0.848;2022-11-13T08:47:53;5.20;;;4.10;;
42742;SDS011;28397;44.552;-0.848;2022-11-13T08:50:18;6.10;;;3.90;;
42742;SDS011;28397;44.552;-0.848;2022-11-13T08:52:44;4.35;;;3.90;;
42742;SDS011;28397;44.552;-0.848;2022-11-13T08:55:10;6.40;;;4.40;;
42742;SDS011;28397;44.552;-0.848;2022-11-13T08:57:36;6.75;;;4.10;;
42742;SDS011;28397;44.552;-0.848;2022-11-13T09:00:04;5.38;;;4.03;;
42742;SDS011;28397;44.552;-0.848;2022-11-13T09:02:31;5.25;;;4.03;;
42742;SDS011;28397;44.552;-0.848;2022-11-13T09:04:56;6.22;;;4.28;;
42742;SDS011;28397;44.552;-0.848;2022-11-13T09:07:22;4.97;;;4.20;;
42742;SDS011;28397;44.552;-0.848;2022-11-13T09:09:48;4.68;;;4.28;;
42742;SDS011;28397;44.552;-0.848;2022-11-13T09:12:14;4.93;;;3.97;;
42742;SDS011;28397;44.552;-0.848;2022-11-13T09:14:39;6.13;;;4.47;;
42742;SDS011;28397;44.552;-0.848;2022-11-13T09:17:05;8.38;;;4.22;;
42742;SDS011;28397;44.552;-0.848;2022-11-13T09:19:31;5.05;;;4.07;;
42742;SDS011;28397;44.552;-0.848;2022-11-13T09:21:56;8.93;;;4.47;;
42742;SDS011;28397;44.552;-0.848;2022-11-13T09:24:24;8.05;;;4.18;;
42742;SDS011;28397;44.552;-0.848;2022-11-13T09:26:50;5.25;;;3.85;;
42742;SDS011;28397;44.552;-0.848;2022-11-13T09:29:15;7.68;;;3.92;;
42742;SDS011;28397;44.552;-0.848;2022-11-13T09:31:42;6.70;;;4.10;;
42742;SDS011;28397;44.552;-0.848;2022-11-13T09:34:08;6.05;;;3.88;;
42742;SDS011;28397;44.552;-0.848;2022-11-13T09:36:34;5.60;;;3.75;;
42742;SDS011;28397;44.552;-0.848;2022-11-13T09:39:00;5.68;;;3.85;;
42742;SDS011;28397;44.552;-0.848;2022-11-13T09:41:48;4.10;;;3.70;;
42742;SDS011;28397;44.552;-0.848;2022-11-13T09:46:54;4.35;;;3.67;;
42742;SDS011;28397;44.552;-0.848;2022-11-13T09:49:31;5.60;;;3.60;;
42742;SDS011;28397;44.552;-0.848;2022-11-13T09:52:04;4.88;;;3.40;;
42742;SDS011;28397;44.552;-0.848;2022-11-13T09:54:38;5.78;;;3.50;;
42742;SDS011;28397;44.552;-0.848;2022-11-13T10:05:31;4.72;;;3.70;;
42742;SDS011;28397;44.552;-0.848;2022-11-13T10:08:12;6.28;;;3.50;;
42742;SDS011;28397;44.552;-0.848;2022-11-13T10:13:39;4.97;;;3.40;;
42742;SDS011;28397;44.552;-0.848;2022-11-13T10:21:45;5.57;;;3.38;;
42742;SDS011;28397;44.552;-0.848;2022-11-13T10:24:16;4.53;;;3.58;;
42742;SDS011;28397;44.552;-0.848;2022-11-13T10:26:49;6.00;;;3.30;;
42742;SDS011;28397;44.552;-0.848;2022-11-13T10:29:16;6.78;;;3.53;;
42742;SDS011;28397;44.552;-0.848;2022-11-13T10:34:11;5.20;;;3.25;;
42742;SDS011;28397;44.552;-0.848;2022-11-13T10:37:27;4.88;;;3.45;;
42742;SDS011;28397;44.552;-0.848;2022-11-13T10:39:29;6.35;;;3.25;;
42742;SDS011;28397;44.552;-0.848;2022-11-13T10:41:55;6.90;;;3.00;;
42742;SDS011;28397;44.552;-0.848;2022-11-13T10:46:49;6.15;;;3.42;;
42742;SDS011;28397;44.552;-0.848;2022-11-13T10:51:53;5.40;;;3.00;;
42742;SDS011;28397;44.552;-0.848;2022-11-13T10:54:27;5.32;;;3.00;;
42742;SDS011;28397;44.552;-0.848;2022-11-13T10:57:01;4.18;;;2.72;;
42742;SDS011;28397;44.552;-0.848;2022-11-13T10:59:39;4.60;;;2.88;;
42742;SDS011;28397;44.552;-0.848;2022-11-13T11:02:08;5.95;;;3.13;;
42742;SDS011;28397;44.552;-0.848;2022-11-13T11:04:41;6.47;;;3.10;;
42742;SDS011;28397;44.552;-0.848;2022-11-13T11:07:14;8.43;;;3.13;;
42742;SDS011;28397;44.552;-0.848;2022-11-13T11:09:46;5.97;;;3.38;;
42742;SDS011;28397;44.552;-0.848;2022-11-13T11:12:13;4.68;;;2.70;;
42742;SDS011;28397;44.552;-0.848;2022-11-13T11:22:32;7.00;;;3.08;;
42742;SDS011;28397;44.552;-0.848;2022-11-13T11:25:16;4.20;;;3.20;;
42742;SDS011;28397;44.552;-0.848;2022-11-13T11:30:48;4.63;;;3.05;;
42742;SDS011;28397;44.552;-0.848;2022-11-13T11:38:32;5.97;;;3.00;;
42742;SDS011;28397;44.552;-0.848;2022-11-13T11:41:07;4.28;;;2.80;;
42742;SDS011;28397;44.552;-0.848;2022-11-13T11:46:12;4.72;;;2.90;;
42742;SDS011;28397;44.552;-0.848;2022-11-13T11:48:38;6.40;;;2.97;;
42742;SDS011;28397;44.552;-0.848;2022-11-13T11:56:33;5.63;;;2.90;;
42742;SDS011;28397;44.552;-0.848;2022-11-13T12:01:53;4.82;;;2.80;;
42742;SDS011;28397;44.552;-0.848;2022-11-13T12:04:34;4.38;;;2.45;;
42742;SDS011;28397;44.552;-0.848;2022-11-13T12:12:59;5.05;;;2.50;;
42742;SDS011;28397;44.552;-0.848;2022-11-13T12:15:54;4.97;;;2.80;;
42742;SDS011;28397;44.552;-0.848;2022-11-13T12:34:43;4.35;;;2.72;;
42742;SDS011;28397;44.552;-0.848;2022-11-13T12:37:16;8.32;;;2.80;;
42742;SDS011;28397;44.552;-0.848;2022-11-13T12:40:05;5.40;;;2.92;;
42742;SDS011;28397;44.552;-0.848;2022-11-13T12:45:53;5.95;;;2.80;;
42742;SDS011;28397;44.552;-0.848;2022-11-13T12:48:36;7.40;;;2.78;;
42742;SDS011;28397;44.552;-0.848;2022-11-13T12:51:08;3.33;;;2.20;;
42742;SDS011;28397;44.552;-0.848;2022-11-13T12:53:43;3.70;;;2.63;;
42742;SDS011;28397;44.552;-0.848;2022-11-13T12:56:17;7.22;;;2.80;;
42742;SDS011;28397;44.552;-0.848;2022-11-13T12:59:02;3.90;;;2.53;;
42742;SDS011;28397;44.552;-0.848;2022-11-13T13:01:31;5.82;;;2.88;;
42742;SDS011;28397;44.552;-0.848;2022-11-13T13:06:58;4.43;;;2.50;;
42742;SDS011;28397;44.552;-0.848;2022-11-13T13:15:27;4.55;;;2.60;;
42742;SDS011;28397;44.552;-0.848;2022-11-13T13:20:40;11.80;;;7.68;;
42742;SDS011;28397;44.552;-0.848;2022-11-13T13:23:10;14.80;;;10.18;;
42742;SDS011;28397;44.552;-0.848;2022-11-13T13:25:38;10.52;;;7.60;;
42742;SDS011;28397;44.552;-0.848;2022-11-13T13:33:36;6.00;;;2.80;;
42742;SDS011;28397;44.552;-0.848;2022-11-13T13:36:41;5.13;;;3.00;;
42742;SDS011;28397;44.552;-0.848;2022-11-13T13:44:58;6.82;;;2.78;;
42742;SDS011;28397;44.552;-0.848;2022-11-13T13:47:32;4.95;;;2.60;;
42742;SDS011;28397;44.552;-0.848;2022-11-13T13:50:04;7.07;;;3.03;;
42742;SDS011;28397;44.552;-0.848;2022-11-13T13:52:32;5.38;;;2.90;;
42742;SDS011;28397;44.552;-0.848;2022-11-13T13:55:03;5.85;;;2.45;;
42742;SDS011;28397;44.552;-0.848;2022-11-13T13:57:32;4.97;;;2.58;;
42742;SDS011;28397;44.552;-0.848;2022-11-13T14:00:03;7.05;;;2.88;;
42742;SDS011;28397;44.552;-0.848;2022-11-13T14:02:43;6.47;;;3.05;;
42742;SDS011;28397;44.552;-0.848;2022-11-13T14:05:45;5.45;;;2.70;;
42742;SDS011;28397;44.552;-0.848;2022-11-13T14:08:04;5.22;;;2.83;;
42742;SDS011;28397;44.552;-0.848;2022-11-13T14:10:44;6.07;;;2.97;;
42742;SDS011;28397;44.552;-0.848;2022-11-13T14:13:20;5.80;;;2.90;;
42742;SDS011;28397;44.552;-0.848;2022-11-13T14:15:48;7.90;;;2.72;;
42742;SDS011;28397;44.552;-0.848;2022-11-13T14:18:23;4.60;;;2.80;;
42742;SDS011;28397;44.552;-0.848;2022-11-13T14:20:54;4.63;;;2.72;;
42742;SDS011;28397;44.552;-0.848;2022-11-13T14:25:52;5.78;;;3.00;;
42742;SDS011;28397;44.552;-0.848;2022-11-13T14:28:19;6.30;;;2.83;;
42742;SDS011;28397;44.552;-0.848;2022-11-13T14:30:56;5.15;;;2.92;;
42742;SDS011;28397;44.552;-0.848;2022-11-13T14:33:45;5.32;;;2.53;;
42742;SDS011;28397;44.552;-0.848;2022-11-13T14:36:13;7.25;;;3.10;;
42742;SDS011;28397;44.552;-0.848;2022-11-13T14:38:42;4.75;;;2.80;;
42742;SDS011;28397;44.552;-0.848;2022-11-13T14:41:19;3.85;;;2.53;;
42742;SDS011;28397;44.552;-0.848;2022-11-13T14:44:08;3.67;;;2.95;;
42742;SDS011;28397;44.552;-0.848;2022-11-13T14:46:36;6.93;;;3.10;;
42742;SDS011;28397;44.552;-0.848;2022-11-13T14:49:24;5.60;;;2.83;;
42742;SDS011;28397;44.552;-0.848;2022-11-13T14:51:54;10.15;;;4.20;;
42742;SDS011;28397;44.552;-0.848;2022-11-13T14:54:31;6.55;;;3.92;;
42742;SDS011;28397;44.552;-0.848;2022-11-13T14:57:05;9.98;;;7.57;;
42742;SDS011;28397;44.552;-0.848;2022-11-13T14:59:35;12.50;;;6.45;;
42742;SDS011;28397;44.552;-0.848;2022-11-13T15:02:03;10.90;;;6.28;;
42742;SDS011;28397;44.552;-0.848;2022-11-13T15:04:29;10.38;;;5.90;;
42742;SDS011;28397;44.552;-0.848;2022-11-13T15:06:58;8.57;;;4.72;;
42742;SDS011;28397;44.552;-0.848;2022-11-13T15:09:25;6.30;;;3.08;;
42742;SDS011;28397;44.552;-0.848;2022-11-13T15:11:53;6.85;;;3.30;;
42742;SDS011;28397;44.552;-0.848;2022-11-13T15:14:19;6.82;;;3.17;;
42742;SDS011;28397;44.552;-0.848;2022-11-13T15:16:46;7.50;;;3.08;;
42742;SDS011;28397;44.552;-0.848;2022-11-13T15:19:28;6.00;;;3.00;;
42742;SDS011;28397;44.552;-0.848;2022-11-13T15:21:58;7.38;;;3.38;;
42742;SDS011;28397;44.552;-0.848;2022-11-13T15:24:25;5.78;;;3.30;;
42742;SDS011;28397;44.552;-0.848;2022-11-13T15:26:51;7.93;;;3.55;;
42742;SDS011;28397;44.552;-0.848;2022-11-13T15:29:17;6.22;;;3.30;;
42742;SDS011;28397;44.552;-0.848;2022-11-13T15:31:43;7.13;;;3.00;;
42742;SDS011;28397;44.552;-0.848;2022-11-13T15:34:10;4.55;;;3.13;;
42742;SDS011;28397;44.552;-0.848;2022-11-13T15:36:37;7.93;;;3.25;;
42742;SDS011;28397;44.552;-0.848;2022-11-13T15:39:04;7.68;;;3.50;;
42742;SDS011;28397;44.552;-0.848;2022-11-13T15:41:30;9.65;;;3.25;;
42742;SDS011;28397;44.552;-0.848;2022-11-13T15:43:58;6.75;;;3.30;;
42742;SDS011;28397;44.552;-0.848;2022-11-13T15:46:26;7.80;;;3.40;;
42742;SDS011;28397;44.552;-0.848;2022-11-13T15:48:52;10.00;;;3.55;;
42742;SDS011;28397;44.552;-0.848;2022-11-13T15:53:49;8.43;;;3.75;;
42742;SDS011;28397;44.552;-0.848;2022-11-13T15:56:21;8.02;;;3.70;;
42742;SDS011;28397;44.552;-0.848;2022-11-13T15:58:48;9.05;;;4.00;;
42742;SDS011;28397;44.552;-0.848;2022-11-13T16:01:14;7.57;;;4.10;;
42742;SDS011;28397;44.552;-0.848;2022-11-13T16:03:40;7.10;;;4.15;;
42742;SDS011;28397;44.552;-0.848;2022-11-13T16:06:16;7.90;;;3.90;;
42742;SDS011;28397;44.552;-0.848;2022-11-13T16:08:44;7.43;;;4.05;;
42742;SDS011;28397;44.552;-0.848;2022-11-13T16:11:14;11.48;;;4.38;;
42742;SDS011;28397;44.552;-0.848;2022-11-13T16:13:41;10.18;;;4.45;;
42742;SDS011;28397;44.552;-0.848;2022-11-13T16:16:09;9.52;;;3.90;;
42742;SDS011;28397;44.552;-0.848;2022-11-13T16:18:47;8.32;;;4.07;;
42742;SDS011;28397;44.552;-0.848;2022-11-13T16:21:14;7.88;;;4.32;;
42742;SDS011;28397;44.552;-0.848;2022-11-13T16:23:42;10.15;;;4.28;;
42742;SDS011;28397;44.552;-0.848;2022-11-13T16:26:10;6.15;;;3.67;;
42742;SDS011;28397;44.552;-0.848;2022-11-13T16:28:39;6.57;;;4.15;;
42742;SDS011;28397;44.552;-0.848;2022-11-13T16:31:04;9.82;;;4.60;;